KCHK

Chickasha Municipal Airport

Chickasha, Oklahoma, USA
METAR KCHK 231615Z AUTO 07005KT 7SM TS OVC004 01/01 A3024 RMK AO2 LTG DSNT E THRU S T00120008
Observed Flight Rules
Feb-23 @ 16:15 UTC (21 minutes ago) Instrument Flight Rules
Wind Visibility Clouds Conditions
70° at 5 knots 7 miles
  • Overcast at 400' AGL
  • Thunderstorm
Temperatures Readings
Current 1°C / 34°F
Dewpoint 1°C / 34°F
Humidity 100%
Altimeter 30.24" Hg
Pressure 1024 hPa
Elevation 351
METAR KCHK 231615Z AUTO 07005KT 7SM TS OVC004 01/01 A3024 RMK AO2 LTG DSNT E THRU S T00120008
Observed Flight Rules
Feb-23 @ 16:15 UTC
(21 minutes ago)
LIFR
Wind Visibility
70° at 5 knots 7 miles
Clouds
  • Overcast at 400' AGL
Conditions
  • Thunderstorm
Temperature Dewpoint
1°C / 34°F 1°C / 34°F
Humidity Altimeter Pressure
100% 30.24" Hg 1024 hPa